Glencoe Muni Information

FAA: GYL - ICAO: KGYL

Glencoe Muni (Airport) Location

State Minnesota
County Mc Leod
City Glencoe
Glencoe Muni (Airport) is 3 miles southeast of Glencoe, MN.
Latitude 44-45-21.6210N
Longitude 094-04-53.2580W
Elevation 992ft

Glencoe Muni METARs

METAR KGYL 191155Z AUTO 00000KT 10SM CLR 11/10 A2964 RMK AO2 T01110096 10148 20100
Altimeter 29.64"
Temperature 11.1°C (52.0°F)
Wind 0° at 0KT
Clouds Skies are clear.
Visibility 10.0mi
Time observed: 2022-05-19T11:55:00Z

Glencoe Muni (Airport) Details

Status Operational
Activation December 1969
Ownership Public
Usage Public
Chart TWIN CITIES
ATC on-site No
Beacon schedule sunset-sunrise
Beacon color clear green

Glencoe Muni (Airport) Contacts

Owner CITY OF GLENCOE
Owner address 1107 11TH ST E, SUITE 107, GLENCOE, MN 55336
Owner phone 320-864-5586
Manager JAMES I. NIELSEN
Manager address 3196- 240TH STREET WEST, FARMINGTON, MN 55024
Manager phone 612-743-7761

Glencoe Muni Radio Frequencies

Glencoe Muni (Airport) Radio Frequencies

UNICOM 122.8
Common traffic advisory frequency (CTAF) 122.8